sensor_id;sensor_type;location;lat;lon;timestamp;P1;durP1;ratioP1;P2;durP2;ratioP2
49590;SDS011;35496;-21.974;-46.800;2024-01-30T00:01:33;5.45;;;3.70;;
49590;SDS011;35496;-21.974;-46.800;2024-01-30T00:04:00;4.47;;;4.18;;
49590;SDS011;35496;-21.974;-46.800;2024-01-30T00:06:26;4.85;;;3.95;;
49590;SDS011;35496;-21.974;-46.800;2024-01-30T00:08:53;4.30;;;4.00;;
49590;SDS011;35496;-21.974;-46.800;2024-01-30T00:11:19;4.13;;;3.72;;
49590;SDS011;35496;-21.974;-46.800;2024-01-30T00:13:46;3.35;;;3.13;;
49590;SDS011;35496;-21.974;-46.800;2024-01-30T00:16:22;6.93;;;4.85;;
49590;SDS011;35496;-21.974;-46.800;2024-01-30T00:18:50;6.72;;;3.67;;
49590;SDS011;35496;-21.974;-46.800;2024-01-30T00:21:18;7.78;;;5.38;;
49590;SDS011;35496;-21.974;-46.800;2024-01-30T00:23:44;4.95;;;4.03;;
49590;SDS011;35496;-21.974;-46.800;2024-01-30T00:26:11;4.95;;;4.45;;
49590;SDS011;35496;-21.974;-46.800;2024-01-30T00:28:38;7.13;;;3.90;;
49590;SDS011;35496;-21.974;-46.800;2024-01-30T00:31:04;4.78;;;4.32;;
49590;SDS011;35496;-21.974;-46.800;2024-01-30T00:33:31;9.00;;;4.10;;
49590;SDS011;35496;-21.974;-46.800;2024-01-30T00:35:58;4.50;;;4.10;;
49590;SDS011;35496;-21.974;-46.800;2024-01-30T00:38:24;4.85;;;3.42;;
49590;SDS011;35496;-21.974;-46.800;2024-01-30T00:40:51;4.63;;;3.60;;
49590;SDS011;35496;-21.974;-46.800;2024-01-30T00:43:18;3.92;;;3.50;;
49590;SDS011;35496;-21.974;-46.800;2024-01-30T00:45:45;5.18;;;3.28;;
49590;SDS011;35496;-21.974;-46.800;2024-01-30T00:48:11;7.75;;;3.95;;
49590;SDS011;35496;-21.974;-46.800;2024-01-30T00:50:38;3.45;;;3.03;;
49590;SDS011;35496;-21.974;-46.800;2024-01-30T00:53:05;3.85;;;3.00;;
49590;SDS011;35496;-21.974;-46.800;2024-01-30T00:55:31;3.88;;;2.75;;
49590;SDS011;35496;-21.974;-46.800;2024-01-30T00:57:58;5.40;;;3.28;;
49590;SDS011;35496;-21.974;-46.800;2024-01-30T01:00:24;3.13;;;2.80;;
49590;SDS011;35496;-21.974;-46.800;2024-01-30T01:02:54;2.80;;;2.38;;
49590;SDS011;35496;-21.974;-46.800;2024-01-30T01:05:21;3.10;;;2.72;;
49590;SDS011;35496;-21.974;-46.800;2024-01-30T01:07:48;3.83;;;2.42;;
49590;SDS011;35496;-21.974;-46.800;2024-01-30T01:10:15;3.92;;;2.20;;
49590;SDS011;35496;-21.974;-46.800;2024-01-30T01:12:44;5.38;;;2.38;;
49590;SDS011;35496;-21.974;-46.800;2024-01-30T01:15:11;7.13;;;2.70;;
49590;SDS011;35496;-21.974;-46.800;2024-01-30T01:17:38;6.00;;;2.63;;
49590;SDS011;35496;-21.974;-46.800;2024-01-30T01:20:05;7.13;;;2.13;;
49590;SDS011;35496;-21.974;-46.800;2024-01-30T01:22:33;2.72;;;2.30;;
49590;SDS011;35496;-21.974;-46.800;2024-01-30T01:25:00;3.22;;;2.75;;
49590;SDS011;35496;-21.974;-46.800;2024-01-30T01:27:27;2.00;;;1.85;;
49590;SDS011;35496;-21.974;-46.800;2024-01-30T01:29:53;2.20;;;2.00;;
49590;SDS011;35496;-21.974;-46.800;2024-01-30T01:32:20;2.78;;;2.30;;
49590;SDS011;35496;-21.974;-46.800;2024-01-30T01:34:47;2.55;;;2.35;;
49590;SDS011;35496;-21.974;-46.800;2024-01-30T01:37:13;3.17;;;2.42;;
49590;SDS011;35496;-21.974;-46.800;2024-01-30T01:39:40;3.30;;;2.50;;
49590;SDS011;35496;-21.974;-46.800;2024-01-30T01:42:06;2.67;;;2.20;;
49590;SDS011;35496;-21.974;-46.800;2024-01-30T01:44:33;3.47;;;2.80;;
49590;SDS011;35496;-21.974;-46.800;2024-01-30T01:46:59;2.40;;;2.30;;
49590;SDS011;35496;-21.974;-46.800;2024-01-30T01:49:27;2.45;;;2.30;;
49590;SDS011;35496;-21.974;-46.800;2024-01-30T01:51:54;3.47;;;3.10;;
49590;SDS011;35496;-21.974;-46.800;2024-01-30T01:54:24;3.30;;;3.08;;
49590;SDS011;35496;-21.974;-46.800;2024-01-30T01:56:52;4.32;;;2.85;;
49590;SDS011;35496;-21.974;-46.800;2024-01-30T01:59:18;2.33;;;2.20;;
49590;SDS011;35496;-21.974;-46.800;2024-01-30T02:01:46;3.63;;;2.58;;
49590;SDS011;35496;-21.974;-46.800;2024-01-30T02:04:15;2.72;;;1.88;;
49590;SDS011;35496;-21.974;-46.800;2024-01-30T02:06:42;3.22;;;2.30;;
49590;SDS011;35496;-21.974;-46.800;2024-01-30T02:09:09;2.30;;;2.20;;
49590;SDS011;35496;-21.974;-46.800;2024-01-30T02:11:36;2.72;;;1.98;;
49590;SDS011;35496;-21.974;-46.800;2024-01-30T02:14:03;2.75;;;2.58;;
49590;SDS011;35496;-21.974;-46.800;2024-01-30T02:16:30;2.58;;;2.20;;
49590;SDS011;35496;-21.974;-46.800;2024-01-30T02:18:57;1.73;;;1.63;;
49590;SDS011;35496;-21.974;-46.800;2024-01-30T02:21:23;4.85;;;2.50;;
49590;SDS011;35496;-21.974;-46.800;2024-01-30T02:23:51;2.53;;;2.13;;
49590;SDS011;35496;-21.974;-46.800;2024-01-30T02:26:18;2.83;;;2.17;;
49590;SDS011;35496;-21.974;-46.800;2024-01-30T02:28:45;4.18;;;2.40;;
49590;SDS011;35496;-21.974;-46.800;2024-01-30T02:31:12;2.92;;;2.60;;
49590;SDS011;35496;-21.974;-46.800;2024-01-30T02:33:38;3.92;;;2.58;;
49590;SDS011;35496;-21.974;-46.800;2024-01-30T02:36:05;6.45;;;2.95;;
49590;SDS011;35496;-21.974;-46.800;2024-01-30T02:38:31;4.32;;;2.58;;
49590;SDS011;35496;-21.974;-46.800;2024-01-30T02:40:58;2.80;;;2.38;;
49590;SDS011;35496;-21.974;-46.800;2024-01-30T02:43:24;2.92;;;2.25;;
49590;SDS011;35496;-21.974;-46.800;2024-01-30T02:45:51;3.63;;;2.42;;
49590;SDS011;35496;-21.974;-46.800;2024-01-30T02:48:17;4.57;;;2.60;;
49590;SDS011;35496;-21.974;-46.800;2024-01-30T02:50:44;3.10;;;2.85;;
49590;SDS011;35496;-21.974;-46.800;2024-01-30T02:53:13;3.55;;;3.17;;
49590;SDS011;35496;-21.974;-46.800;2024-01-30T02:55:39;3.22;;;2.70;;
49590;SDS011;35496;-21.974;-46.800;2024-01-30T02:58:06;2.35;;;2.15;;
49590;SDS011;35496;-21.974;-46.800;2024-01-30T03:00:32;3.35;;;2.38;;
49590;SDS011;35496;-21.974;-46.800;2024-01-30T03:02:59;5.05;;;2.45;;
49590;SDS011;35496;-21.974;-46.800;2024-01-30T03:05:27;3.53;;;2.08;;
49590;SDS011;35496;-21.974;-46.800;2024-01-30T03:07:53;2.50;;;2.38;;
49590;SDS011;35496;-21.974;-46.800;2024-01-30T03:10:20;12.25;;;2.95;;
49590;SDS011;35496;-21.974;-46.800;2024-01-30T03:12:46;2.45;;;2.33;;
49590;SDS011;35496;-21.974;-46.800;2024-01-30T03:15:13;7.68;;;2.72;;
49590;SDS011;35496;-21.974;-46.800;2024-01-30T03:17:40;6.18;;;2.83;;
49590;SDS011;35496;-21.974;-46.800;2024-01-30T03:20:07;7.47;;;2.85;;
49590;SDS011;35496;-21.974;-46.800;2024-01-30T03:22:34;3.50;;;2.72;;
49590;SDS011;35496;-21.974;-46.800;2024-01-30T03:25:01;4.82;;;2.42;;
49590;SDS011;35496;-21.974;-46.800;2024-01-30T03:27:28;3.47;;;1.90;;
49590;SDS011;35496;-21.974;-46.800;2024-01-30T03:29:54;3.20;;;1.73;;
49590;SDS011;35496;-21.974;-46.800;2024-01-30T03:32:21;3.17;;;2.45;;
49590;SDS011;35496;-21.974;-46.800;2024-01-30T03:34:47;3.08;;;2.60;;
49590;SDS011;35496;-21.974;-46.800;2024-01-30T03:37:14;3.17;;;2.70;;
49590;SDS011;35496;-21.974;-46.800;2024-01-30T03:39:41;8.32;;;3.17;;
49590;SDS011;35496;-21.974;-46.800;2024-01-30T03:42:07;7.05;;;3.63;;
49590;SDS011;35496;-21.974;-46.800;2024-01-30T03:44:34;4.70;;;4.30;;
49590;SDS011;35496;-21.974;-46.800;2024-01-30T03:47:00;4.60;;;3.30;;
49590;SDS011;35496;-21.974;-46.800;2024-01-30T03:49:27;4.75;;;3.45;;
49590;SDS011;35496;-21.974;-46.800;2024-01-30T03:51:54;7.00;;;2.97;;
49590;SDS011;35496;-21.974;-46.800;2024-01-30T03:54:21;4.55;;;3.97;;
49590;SDS011;35496;-21.974;-46.800;2024-01-30T03:56:47;5.40;;;3.80;;
49590;SDS011;35496;-21.974;-46.800;2024-01-30T03:59:14;5.10;;;3.50;;
49590;SDS011;35496;-21.974;-46.800;2024-01-30T04:01:40;3.47;;;3.17;;
49590;SDS011;35496;-21.974;-46.800;2024-01-30T04:04:07;4.82;;;2.90;;
49590;SDS011;35496;-21.974;-46.800;2024-01-30T04:06:33;3.50;;;3.20;;
49590;SDS011;35496;-21.974;-46.800;2024-01-30T04:09:00;3.83;;;3.53;;
49590;SDS011;35496;-21.974;-46.800;2024-01-30T04:11:27;3.83;;;3.30;;
49590;SDS011;35496;-21.974;-46.800;2024-01-30T04:13:53;3.22;;;2.92;;
49590;SDS011;35496;-21.974;-46.800;2024-01-30T04:16:20;3.92;;;3.60;;
49590;SDS011;35496;-21.974;-46.800;2024-01-30T04:18:47;3.90;;;2.90;;
49590;SDS011;35496;-21.974;-46.800;2024-01-30T04:24:02;4.00;;;3.60;;
49590;SDS011;35496;-21.974;-46.800;2024-01-30T04:29:51;7.85;;;3.05;;
49590;SDS011;35496;-21.974;-46.800;2024-01-30T04:32:18;3.92;;;3.22;;
49590;SDS011;35496;-21.974;-46.800;2024-01-30T04:34:44;6.57;;;4.30;;
49590;SDS011;35496;-21.974;-46.800;2024-01-30T04:37:11;6.63;;;3.10;;
49590;SDS011;35496;-21.974;-46.800;2024-01-30T04:39:37;5.43;;;3.30;;
49590;SDS011;35496;-21.974;-46.800;2024-01-30T04:42:04;3.95;;;3.65;;
49590;SDS011;35496;-21.974;-46.800;2024-01-30T04:44:31;3.90;;;3.10;;
49590;SDS011;35496;-21.974;-46.800;2024-01-30T04:46:57;4.55;;;3.17;;
49590;SDS011;35496;-21.974;-46.800;2024-01-30T04:49:27;3.97;;;2.72;;
49590;SDS011;35496;-21.974;-46.800;2024-01-30T04:51:54;3.65;;;3.25;;
49590;SDS011;35496;-21.974;-46.800;2024-01-30T04:54:21;4.72;;;3.13;;
49590;SDS011;35496;-21.974;-46.800;2024-01-30T04:56:48;7.97;;;3.90;;
49590;SDS011;35496;-21.974;-46.800;2024-01-30T04:59:15;4.13;;;3.33;;
49590;SDS011;35496;-21.974;-46.800;2024-01-30T05:01:41;12.73;;;4.22;;
49590;SDS011;35496;-21.974;-46.800;2024-01-30T05:04:08;4.45;;;3.97;;
49590;SDS011;35496;-21.974;-46.800;2024-01-30T05:06:35;3.92;;;3.55;;
49590;SDS011;35496;-21.974;-46.800;2024-01-30T05:09:01;4.43;;;4.03;;
49590;SDS011;35496;-21.974;-46.800;2024-01-30T05:11:30;4.53;;;3.90;;
49590;SDS011;35496;-21.974;-46.800;2024-01-30T05:13:56;4.97;;;4.60;;
49590;SDS011;35496;-21.974;-46.800;2024-01-30T05:16:23;3.97;;;3.70;;
49590;SDS011;35496;-21.974;-46.800;2024-01-30T05:18:50;4.28;;;3.90;;
49590;SDS011;35496;-21.974;-46.800;2024-01-30T05:21:16;6.03;;;4.30;;
49590;SDS011;35496;-21.974;-46.800;2024-01-30T05:23:43;11.25;;;5.65;;
49590;SDS011;35496;-21.974;-46.800;2024-01-30T05:26:09;6.43;;;4.35;;
49590;SDS011;35496;-21.974;-46.800;2024-01-30T05:28:36;6.72;;;3.65;;
49590;SDS011;35496;-21.974;-46.800;2024-01-30T05:31:03;5.22;;;3.53;;
49590;SDS011;35496;-21.974;-46.800;2024-01-30T05:33:29;4.78;;;4.25;;
49590;SDS011;35496;-21.974;-46.800;2024-01-30T05:35:56;5.60;;;4.97;;
49590;SDS011;35496;-21.974;-46.800;2024-01-30T05:38:22;5.15;;;4.03;;
49590;SDS011;35496;-21.974;-46.800;2024-01-30T05:40:49;4.28;;;3.40;;
49590;SDS011;35496;-21.974;-46.800;2024-01-30T05:43:15;5.53;;;5.03;;
49590;SDS011;35496;-21.974;-46.800;2024-01-30T05:45:42;8.43;;;4.70;;
49590;SDS011;35496;-21.974;-46.800;2024-01-30T05:48:08;5.97;;;5.35;;
49590;SDS011;35496;-21.974;-46.800;2024-01-30T05:50:35;5.30;;;4.80;;
49590;SDS011;35496;-21.974;-46.800;2024-01-30T05:53:02;5.47;;;3.95;;
49590;SDS011;35496;-21.974;-46.800;2024-01-30T05:55:28;3.60;;;3.38;;
49590;SDS011;35496;-21.974;-46.800;2024-01-30T05:57:55;6.28;;;4.00;;
49590;SDS011;35496;-21.974;-46.800;2024-01-30T06:00:21;5.35;;;3.00;;
49590;SDS011;35496;-21.974;-46.800;2024-01-30T06:02:48;3.63;;;2.67;;
49590;SDS011;35496;-21.974;-46.800;2024-01-30T06:05:14;4.45;;;2.83;;
49590;SDS011;35496;-21.974;-46.800;2024-01-30T06:07:41;3.45;;;3.10;;
49590;SDS011;35496;-21.974;-46.800;2024-01-30T06:10:07;4.95;;;3.13;;
49590;SDS011;35496;-21.974;-46.800;2024-01-30T06:12:35;4.93;;;3.28;;
49590;SDS011;35496;-21.974;-46.800;2024-01-30T06:15:01;2.80;;;2.38;;
49590;SDS011;35496;-21.974;-46.800;2024-01-30T06:17:28;3.92;;;2.88;;
49590;SDS011;35496;-21.974;-46.800;2024-01-30T06:19:55;6.13;;;2.95;;
49590;SDS011;35496;-21.974;-46.800;2024-01-30T06:22:21;4.93;;;4.22;;
49590;SDS011;35496;-21.974;-46.800;2024-01-30T06:24:48;4.50;;;2.65;;
49590;SDS011;35496;-21.974;-46.800;2024-01-30T06:27:14;3.70;;;3.15;;
49590;SDS011;35496;-21.974;-46.800;2024-01-30T06:29:42;7.47;;;3.10;;
49590;SDS011;35496;-21.974;-46.800;2024-01-30T06:32:09;3.40;;;3.05;;
49590;SDS011;35496;-21.974;-46.800;2024-01-30T06:34:36;5.15;;;2.95;;
49590;SDS011;35496;-21.974;-46.800;2024-01-30T06:37:04;12.05;;;3.53;;
49590;SDS011;35496;-21.974;-46.800;2024-01-30T06:39:30;3.58;;;3.03;;
49590;SDS011;35496;-21.974;-46.800;2024-01-30T06:41:57;4.72;;;3.22;;
49590;SDS011;35496;-21.974;-46.800;2024-01-30T06:44:23;3.92;;;3.38;;
49590;SDS011;35496;-21.974;-46.800;2024-01-30T06:46:50;6.00;;;3.83;;
49590;SDS011;35496;-21.974;-46.800;2024-01-30T06:49:16;3.38;;;3.08;;
49590;SDS011;35496;-21.974;-46.800;2024-01-30T06:51:43;3.72;;;3.40;;
49590;SDS011;35496;-21.974;-46.800;2024-01-30T06:54:09;5.43;;;3.28;;
49590;SDS011;35496;-21.974;-46.800;2024-01-30T06:56:36;3.50;;;3.20;;
49590;SDS011;35496;-21.974;-46.800;2024-01-30T06:59:02;5.60;;;3.60;;
49590;SDS011;35496;-21.974;-46.800;2024-01-30T07:01:29;3.72;;;3.03;;
49590;SDS011;35496;-21.974;-46.800;2024-01-30T07:03:56;11.70;;;3.88;;
49590;SDS011;35496;-21.974;-46.800;2024-01-30T07:06:23;6.68;;;3.08;;
49590;SDS011;35496;-21.974;-46.800;2024-01-30T07:08:50;5.70;;;2.78;;
49590;SDS011;35496;-21.974;-46.800;2024-01-30T07:11:20;2.78;;;2.58;;
49590;SDS011;35496;-21.974;-46.800;2024-01-30T07:13:50;5.32;;;3.35;;
49590;SDS011;35496;-21.974;-46.800;2024-01-30T07:16:17;6.35;;;4.22;;
49590;SDS011;35496;-21.974;-46.800;2024-01-30T07:18:43;7.13;;;5.22;;
49590;SDS011;35496;-21.974;-46.800;2024-01-30T07:21:11;4.15;;;3.85;;
49590;SDS011;35496;-21.974;-46.800;2024-01-30T07:23:37;8.07;;;3.25;;
49590;SDS011;35496;-21.974;-46.800;2024-01-30T07:26:07;8.70;;;4.55;;
49590;SDS011;35496;-21.974;-46.800;2024-01-30T07:28:34;4.90;;;4.43;;
49590;SDS011;35496;-21.974;-46.800;2024-01-30T07:31:01;7.07;;;5.45;;
49590;SDS011;35496;-21.974;-46.800;2024-01-30T07:33:28;6.90;;;5.68;;
49590;SDS011;35496;-21.974;-46.800;2024-01-30T07:35:55;8.32;;;5.53;;
49590;SDS011;35496;-21.974;-46.800;2024-01-30T07:38:21;6.32;;;5.22;;
49590;SDS011;35496;-21.974;-46.800;2024-01-30T07:40:48;8.25;;;4.30;;
49590;SDS011;35496;-21.974;-46.800;2024-01-30T07:43:15;4.50;;;4.13;;
49590;SDS011;35496;-21.974;-46.800;2024-01-30T07:45:42;4.72;;;3.50;;
49590;SDS011;35496;-21.974;-46.800;2024-01-30T07:48:08;5.78;;;3.20;;
49590;SDS011;35496;-21.974;-46.800;2024-01-30T07:50:35;4.63;;;2.95;;
49590;SDS011;35496;-21.974;-46.800;2024-01-30T07:53:01;2.85;;;2.65;;
49590;SDS011;35496;-21.974;-46.800;2024-01-30T07:55:28;6.30;;;3.00;;
49590;SDS011;35496;-21.974;-46.800;2024-01-30T07:57:57;3.65;;;2.65;;
49590;SDS011;35496;-21.974;-46.800;2024-01-30T08:00:24;4.60;;;2.70;;
49590;SDS011;35496;-21.974;-46.800;2024-01-30T08:02:51;5.13;;;4.70;;
49590;SDS011;35496;-21.974;-46.800;2024-01-30T08:05:19;3.70;;;3.40;;
49590;SDS011;35496;-21.974;-46.800;2024-01-30T08:07:48;4.80;;;2.75;;
49590;SDS011;35496;-21.974;-46.800;2024-01-30T08:10:15;3.40;;;3.10;;
49590;SDS011;35496;-21.974;-46.800;2024-01-30T08:12:43;7.57;;;3.17;;
49590;SDS011;35496;-21.974;-46.800;2024-01-30T08:15:11;6.47;;;3.13;;
49590;SDS011;35496;-21.974;-46.800;2024-01-30T08:17:38;7.05;;;3.17;;
49590;SDS011;35496;-21.974;-46.800;2024-01-30T08:20:05;3.78;;;3.28;;
49590;SDS011;35496;-21.974;-46.800;2024-01-30T08:22:40;5.32;;;2.83;;
49590;SDS011;35496;-21.974;-46.800;2024-01-30T08:25:07;4.40;;;2.72;;
49590;SDS011;35496;-21.974;-46.800;2024-01-30T08:27:35;2.97;;;2.78;;
49590;SDS011;35496;-21.974;-46.800;2024-01-30T08:30:04;3.15;;;2.95;;
49590;SDS011;35496;-21.974;-46.800;2024-01-30T08:32:34;3.03;;;2.80;;
49590;SDS011;35496;-21.974;-46.800;2024-01-30T08:35:00;3.40;;;3.05;;
49590;SDS011;35496;-21.974;-46.800;2024-01-30T08:37:30;5.00;;;3.40;;
49590;SDS011;35496;-21.974;-46.800;2024-01-30T08:39:57;6.22;;;3.85;;
49590;SDS011;35496;-21.974;-46.800;2024-01-30T08:42:23;3.10;;;2.75;;
49590;SDS011;35496;-21.974;-46.800;2024-01-30T08:44:50;3.70;;;3.38;;
49590;SDS011;35496;-21.974;-46.800;2024-01-30T08:47:18;3.60;;;2.83;;
49590;SDS011;35496;-21.974;-46.800;2024-01-30T08:49:45;4.85;;;3.13;;
49590;SDS011;35496;-21.974;-46.800;2024-01-30T08:52:11;3.38;;;3.08;;
49590;SDS011;35496;-21.974;-46.800;2024-01-30T08:54:38;3.25;;;2.95;;
49590;SDS011;35496;-21.974;-46.800;2024-01-30T08:57:05;3.40;;;3.05;;
49590;SDS011;35496;-21.974;-46.800;2024-01-30T08:59:31;3.13;;;2.92;;
49590;SDS011;35496;-21.974;-46.800;2024-01-30T09:01:59;3.35;;;2.72;;
49590;SDS011;35496;-21.974;-46.800;2024-01-30T09:04:25;3.30;;;3.00;;
49590;SDS011;35496;-21.974;-46.800;2024-01-30T09:06:52;4.30;;;2.95;;
49590;SDS011;35496;-21.974;-46.800;2024-01-30T09:09:18;4.20;;;3.30;;
49590;SDS011;35496;-21.974;-46.800;2024-01-30T09:11:45;3.40;;;3.10;;
49590;SDS011;35496;-21.974;-46.800;2024-01-30T09:14:11;4.03;;;3.42;;
49590;SDS011;35496;-21.974;-46.800;2024-01-30T09:16:38;5.78;;;2.63;;
49590;SDS011;35496;-21.974;-46.800;2024-01-30T09:19:04;4.35;;;3.33;;
49590;SDS011;35496;-21.974;-46.800;2024-01-30T09:21:32;5.38;;;2.80;;
49590;SDS011;35496;-21.974;-46.800;2024-01-30T09:24:02;4.57;;;3.63;;
49590;SDS011;35496;-21.974;-46.800;2024-01-30T09:26:31;3.83;;;3.05;;
49590;SDS011;35496;-21.974;-46.800;2024-01-30T09:28:58;2.95;;;2.60;;
49590;SDS011;35496;-21.974;-46.800;2024-01-30T09:31:24;6.32;;;3.28;;
49590;SDS011;35496;-21.974;-46.800;2024-01-30T09:33:51;4.13;;;3.40;;
49590;SDS011;35496;-21.974;-46.800;2024-01-30T09:36:19;4.50;;;3.85;;
49590;SDS011;35496;-21.974;-46.800;2024-01-30T09:38:46;5.20;;;3.42;;
49590;SDS011;35496;-21.974;-46.800;2024-01-30T09:41:12;4.68;;;4.22;;
49590;SDS011;35496;-21.974;-46.800;2024-01-30T09:43:39;7.25;;;4.03;;
49590;SDS011;35496;-21.974;-46.800;2024-01-30T09:46:07;4.18;;;3.28;;
49590;SDS011;35496;-21.974;-46.800;2024-01-30T09:48:45;6.55;;;4.05;;
49590;SDS011;35496;-21.974;-46.800;2024-01-30T09:51:14;4.90;;;4.45;;
49590;SDS011;35496;-21.974;-46.800;2024-01-30T09:53:42;7.00;;;4.18;;
49590;SDS011;35496;-21.974;-46.800;2024-01-30T09:56:14;6.05;;;3.92;;
49590;SDS011;35496;-21.974;-46.800;2024-01-30T09:58:42;4.25;;;3.53;;
49590;SDS011;35496;-21.974;-46.800;2024-01-30T10:01:08;4.70;;;2.90;;
49590;SDS011;35496;-21.974;-46.800;2024-01-30T10:03:35;3.67;;;3.22;;
49590;SDS011;35496;-21.974;-46.800;2024-01-30T10:06:02;6.88;;;3.88;;
49590;SDS011;35496;-21.974;-46.800;2024-01-30T10:08:29;4.40;;;3.65;;
49590;SDS011;35496;-21.974;-46.800;2024-01-30T10:10:56;8.95;;;4.82;;
49590;SDS011;35496;-21.974;-46.800;2024-01-30T10:13:23;7.50;;;3.50;;
49590;SDS011;35496;-21.974;-46.800;2024-01-30T10:15:49;3.97;;;3.10;;
49590;SDS011;35496;-21.974;-46.800;2024-01-30T10:18:17;5.78;;;3.33;;
49590;SDS011;35496;-21.974;-46.800;2024-01-30T10:20:44;4.90;;;4.18;;
49590;SDS011;35496;-21.974;-46.800;2024-01-30T10:23:11;3.13;;;2.92;;
49590;SDS011;35496;-21.974;-46.800;2024-01-30T10:25:37;5.25;;;3.22;;
49590;SDS011;35496;-21.974;-46.800;2024-01-30T10:28:04;3.30;;;3.00;;
49590;SDS011;35496;-21.974;-46.800;2024-01-30T10:30:31;3.10;;;2.85;;
49590;SDS011;35496;-21.974;-46.800;2024-01-30T10:32:58;3.80;;;3.50;;
49590;SDS011;35496;-21.974;-46.800;2024-01-30T10:35:24;3.42;;;3.13;;
49590;SDS011;35496;-21.974;-46.800;2024-01-30T10:37:51;5.80;;;3.20;;
49590;SDS011;35496;-21.974;-46.800;2024-01-30T10:40:18;3.63;;;3.00;;
49590;SDS011;35496;-21.974;-46.800;2024-01-30T10:42:48;4.05;;;3.05;;
49590;SDS011;35496;-21.974;-46.800;2024-01-30T10:45:16;4.50;;;3.03;;
49590;SDS011;35496;-21.974;-46.800;2024-01-30T10:47:48;4.03;;;3.38;;
49590;SDS011;35496;-21.974;-46.800;2024-01-30T10:50:15;4.05;;;2.72;;
49590;SDS011;35496;-21.974;-46.800;2024-01-30T10:52:42;7.40;;;3.58;;
49590;SDS011;35496;-21.974;-46.800;2024-01-30T10:55:09;4.22;;;2.50;;
49590;SDS011;35496;-21.974;-46.800;2024-01-30T10:57:37;8.30;;;2.97;;
49590;SDS011;35496;-21.974;-46.800;2024-01-30T11:00:05;2.40;;;2.20;;
49590;SDS011;35496;-21.974;-46.800;2024-01-30T11:02:38;5.40;;;3.10;;
49590;SDS011;35496;-21.974;-46.800;2024-01-30T11:05:06;6.22;;;2.97;;
49590;SDS011;35496;-21.974;-46.800;2024-01-30T11:07:38;7.32;;;4.82;;
49590;SDS011;35496;-21.974;-46.800;2024-01-30T11:10:06;15.50;;;6.90;;
49590;SDS011;35496;-21.974;-46.800;2024-01-30T11:12:40;7.00;;;5.07;;
49590;SDS011;35496;-21.974;-46.800;2024-01-30T11:15:12;11.52;;;8.10;;
49590;SDS011;35496;-21.974;-46.800;2024-01-30T11:20:22;10.05;;;6.45;;
49590;SDS011;35496;-21.974;-46.800;2024-01-30T11:22:51;8.13;;;7.38;;
49590;SDS011;35496;-21.974;-46.800;2024-01-30T11:25:23;4.72;;;4.32;;
49590;SDS011;35496;-21.974;-46.800;2024-01-30T11:27:53;9.43;;;5.25;;
49590;SDS011;35496;-21.974;-46.800;2024-01-30T11:30:24;8.40;;;5.60;;
49590;SDS011;35496;-21.974;-46.800;2024-01-30T11:32:59;8.23;;;5.15;;
49590;SDS011;35496;-21.974;-46.800;2024-01-30T11:35:34;9.23;;;4.15;;
49590;SDS011;35496;-21.974;-46.800;2024-01-30T11:38:07;10.23;;;4.47;;
49590;SDS011;35496;-21.974;-46.800;2024-01-30T11:40:37;6.05;;;3.25;;
49590;SDS011;35496;-21.974;-46.800;2024-01-30T11:43:05;4.97;;;3.97;;
49590;SDS011;35496;-21.974;-46.800;2024-01-30T11:45:33;7.13;;;3.72;;
49590;SDS011;35496;-21.974;-46.800;2024-01-30T11:48:01;7.75;;;4.40;;
49590;SDS011;35496;-21.974;-46.800;2024-01-30T11:50:34;4.82;;;3.95;;
49590;SDS011;35496;-21.974;-46.800;2024-01-30T11:53:00;8.25;;;3.38;;
49590;SDS011;35496;-21.974;-46.800;2024-01-30T11:55:28;4.15;;;3.75;;
49590;SDS011;35496;-21.974;-46.800;2024-01-30T11:57:56;7.05;;;4.28;;
49590;SDS011;35496;-21.974;-46.800;2024-01-30T12:00:23;6.65;;;3.72;;
49590;SDS011;35496;-21.974;-46.800;2024-01-30T12:02:51;4.93;;;4.38;;
49590;SDS011;35496;-21.974;-46.800;2024-01-30T12:05:24;9.52;;;5.25;;
49590;SDS011;35496;-21.974;-46.800;2024-01-30T12:07:51;4.35;;;3.15;;
49590;SDS011;35496;-21.974;-46.800;2024-01-30T12:10:18;4.70;;;3.42;;
49590;SDS011;35496;-21.974;-46.800;2024-01-30T12:12:51;4.57;;;2.75;;
49590;SDS011;35496;-21.974;-46.800;2024-01-30T12:15:18;3.85;;;2.30;;
49590;SDS011;35496;-21.974;-46.800;2024-01-30T12:17:47;6.47;;;3.67;;
49590;SDS011;35496;-21.974;-46.800;2024-01-30T12:20:14;4.30;;;3.22;;
49590;SDS011;35496;-21.974;-46.800;2024-01-30T12:22:44;3.25;;;2.58;;
49590;SDS011;35496;-21.974;-46.800;2024-01-30T12:25:17;3.40;;;3.03;;
49590;SDS011;35496;-21.974;-46.800;2024-01-30T12:27:45;6.82;;;2.83;;
49590;SDS011;35496;-21.974;-46.800;2024-01-30T12:30:15;4.28;;;2.88;;
49590;SDS011;35496;-21.974;-46.800;2024-01-30T12:32:46;3.97;;;3.67;;
49590;SDS011;35496;-21.974;-46.800;2024-01-30T12:35:14;9.83;;;3.83;;
49590;SDS011;35496;-21.974;-46.800;2024-01-30T12:37:45;6.13;;;2.92;;
49590;SDS011;35496;-21.974;-46.800;2024-01-30T12:40:13;4.50;;;3.00;;
49590;SDS011;35496;-21.974;-46.800;2024-01-30T12:42:40;5.63;;;3.88;;
49590;SDS011;35496;-21.974;-46.800;2024-01-30T12:45:17;5.03;;;2.70;;
49590;SDS011;35496;-21.974;-46.800;2024-01-30T12:47:47;5.30;;;2.92;;
49590;SDS011;35496;-21.974;-46.800;2024-01-30T12:50:14;7.13;;;3.88;;
49590;SDS011;35496;-21.974;-46.800;2024-01-30T12:52:44;7.28;;;3.03;;
49590;SDS011;35496;-21.974;-46.800;2024-01-30T12:55:10;4.18;;;3.13;;
49590;SDS011;35496;-21.974;-46.800;2024-01-30T12:57:37;3.72;;;2.92;;
49590;SDS011;35496;-21.974;-46.800;2024-01-30T13:00:05;3.28;;;2.15;;
49590;SDS011;35496;-21.974;-46.800;2024-01-30T13:02:34;4.32;;;2.78;;
49590;SDS011;35496;-21.974;-46.800;2024-01-30T13:05:05;3.58;;;3.28;;
49590;SDS011;35496;-21.974;-46.800;2024-01-30T13:07:32;4.50;;;3.15;;
49590;SDS011;35496;-21.974;-46.800;2024-01-30T13:09:59;4.50;;;2.83;;
49590;SDS011;35496;-21.974;-46.800;2024-01-30T13:12:29;3.50;;;2.00;;
49590;SDS011;35496;-21.974;-46.800;2024-01-30T13:14:57;4.30;;;2.97;;
49590;SDS011;35496;-21.974;-46.800;2024-01-30T13:17:29;4.45;;;2.20;;
49590;SDS011;35496;-21.974;-46.800;2024-01-30T13:19:55;5.93;;;2.50;;
49590;SDS011;35496;-21.974;-46.800;2024-01-30T13:22:22;2.90;;;2.70;;
49590;SDS011;35496;-21.974;-46.800;2024-01-30T13:24:49;4.28;;;2.40;;
49590;SDS011;35496;-21.974;-46.800;2024-01-30T13:27:16;3.13;;;2.70;;
49590;SDS011;35496;-21.974;-46.800;2024-01-30T13:29:43;2.50;;;2.40;;
49590;SDS011;35496;-21.974;-46.800;2024-01-30T13:32:10;3.05;;;2.80;;
49590;SDS011;35496;-21.974;-46.800;2024-01-30T13:34:36;3.10;;;2.30;;
49590;SDS011;35496;-21.974;-46.800;2024-01-30T13:37:03;3.30;;;2.38;;
49590;SDS011;35496;-21.974;-46.800;2024-01-30T13:39:30;3.35;;;2.50;;
49590;SDS011;35496;-21.974;-46.800;2024-01-30T13:41:57;3.67;;;2.75;;
49590;SDS011;35496;-21.974;-46.800;2024-01-30T13:44:23;3.85;;;2.83;;
49590;SDS011;35496;-21.974;-46.800;2024-01-30T13:46:50;2.63;;;2.33;;
49590;SDS011;35496;-21.974;-46.800;2024-01-30T13:49:16;3.25;;;2.70;;
49590;SDS011;35496;-21.974;-46.800;2024-01-30T13:51:43;2.92;;;2.22;;
49590;SDS011;35496;-21.974;-46.800;2024-01-30T13:54:09;1.75;;;1.65;;
49590;SDS011;35496;-21.974;-46.800;2024-01-30T13:56:36;3.95;;;2.15;;
49590;SDS011;35496;-21.974;-46.800;2024-01-30T13:59:02;10.77;;;2.33;;
49590;SDS011;35496;-21.974;-46.800;2024-01-30T14:01:31;7.68;;;2.88;;
49590;SDS011;35496;-21.974;-46.800;2024-01-30T14:03:57;3.42;;;2.38;;
49590;SDS011;35496;-21.974;-46.800;2024-01-30T14:06:24;3.80;;;2.60;;
49590;SDS011;35496;-21.974;-46.800;2024-01-30T14:08:50;2.30;;;2.13;;
49590;SDS011;35496;-21.974;-46.800;2024-01-30T14:11:17;5.38;;;2.45;;
49590;SDS011;35496;-21.974;-46.800;2024-01-30T14:13:44;4.88;;;2.42;;
49590;SDS011;35496;-21.974;-46.800;2024-01-30T14:16:10;3.60;;;2.97;;
49590;SDS011;35496;-21.974;-46.800;2024-01-30T14:18:37;6.43;;;2.42;;